sensor_id;sensor_type;location;lat;lon;timestamp;pressure;altitude;pressure_sealevel;temperature;humidity
31331;BME280;34067;39.548;-76.088;2022-08-01T00:00:39;101841.91;;;21.59;100.00
31331;BME280;34067;39.548;-76.088;2022-08-01T00:03:07;101837.07;;;22.38;100.00
31331;BME280;34067;39.548;-76.088;2022-08-01T00:05:35;101834.30;;;21.87;100.00
31331;BME280;34067;39.548;-76.088;2022-08-01T00:08:03;101835.87;;;22.13;100.00
31331;BME280;34067;39.548;-76.088;2022-08-01T00:10:31;101827.80;;;22.14;100.00
31331;BME280;34067;39.548;-76.088;2022-08-01T00:12:59;101826.82;;;22.07;100.00
31331;BME280;34067;39.548;-76.088;2022-08-01T00:15:27;101817.05;;;22.26;100.00
31331;BME280;34067;39.548;-76.088;2022-08-01T00:17:55;101822.09;;;21.97;100.00
31331;BME280;34067;39.548;-76.088;2022-08-01T00:20:23;101823.84;;;21.33;100.00
31331;BME280;34067;39.548;-76.088;2022-08-01T00:22:51;101826.41;;;21.53;100.00
31331;BME280;34067;39.548;-76.088;2022-08-01T00:25:19;101824.62;;;21.29;100.00
31331;BME280;34067;39.548;-76.088;2022-08-01T00:27:47;101821.96;;;21.29;100.00
31331;BME280;34067;39.548;-76.088;2022-08-01T00:30:15;101825.85;;;21.03;100.00
31331;BME280;34067;39.548;-76.088;2022-08-01T00:32:43;101826.77;;;21.15;100.00
31331;BME280;34067;39.548;-76.088;2022-08-01T00:35:11;101823.79;;;22.56;100.00
31331;BME280;34067;39.548;-76.088;2022-08-01T00:37:38;101822.88;;;21.12;100.00
31331;BME280;34067;39.548;-76.088;2022-08-01T00:40:07;101812.47;;;22.23;100.00
31331;BME280;34067;39.548;-76.088;2022-08-01T00:42:35;101814.30;;;21.86;100.00
31331;BME280;34067;39.548;-76.088;2022-08-01T00:45:03;101810.52;;;22.12;100.00
31331;BME280;34067;39.548;-76.088;2022-08-01T00:47:31;101818.30;;;21.56;100.00
31331;BME280;34067;39.548;-76.088;2022-08-01T00:49:59;101824.47;;;22.39;100.00
31331;BME280;34067;39.548;-76.088;2022-08-01T00:52:27;101825.00;;;22.06;100.00
31331;BME280;34067;39.548;-76.088;2022-08-01T00:54:55;101823.07;;;21.49;100.00
31331;BME280;34067;39.548;-76.088;2022-08-01T00:57:22;101817.62;;;21.51;100.00
31331;BME280;34067;39.548;-76.088;2022-08-01T00:59:51;101817.13;;;21.68;100.00
31331;BME280;34067;39.548;-76.088;2022-08-01T01:02:20;101816.70;;;21.50;100.00
31331;BME280;34067;39.548;-76.088;2022-08-01T01:04:47;101812.72;;;21.89;100.00
31331;BME280;34067;39.548;-76.088;2022-08-01T01:07:19;101817.97;;;20.96;100.00
31331;BME280;34067;39.548;-76.088;2022-08-01T01:09:56;101819.31;;;22.15;100.00
31331;BME280;34067;39.548;-76.088;2022-08-01T01:12:31;101823.51;;;22.18;100.00
31331;BME280;34067;39.548;-76.088;2022-08-01T01:15:08;101816.22;;;21.76;100.00
31331;BME280;34067;39.548;-76.088;2022-08-01T01:17:40;101817.93;;;22.12;100.00
31331;BME280;34067;39.548;-76.088;2022-08-01T01:20:13;101816.93;;;21.87;100.00
31331;BME280;34067;39.548;-76.088;2022-08-01T01:22:53;101815.44;;;23.29;100.00
31331;BME280;34067;39.548;-76.088;2022-08-01T01:25:40;101821.79;;;22.27;100.00
31331;BME280;34067;39.548;-76.088;2022-08-01T01:28:23;101823.68;;;22.92;100.00
31331;BME280;34067;39.548;-76.088;2022-08-01T01:30:58;101818.67;;;23.40;100.00
31331;BME280;34067;39.548;-76.088;2022-08-01T01:33:28;101813.77;;;23.22;100.00
31331;BME280;34067;39.548;-76.088;2022-08-01T01:36:01;101802.52;;;22.93;100.00
31331;BME280;34067;39.548;-76.088;2022-08-01T01:38:35;101794.90;;;23.40;100.00
31331;BME280;34067;39.548;-76.088;2022-08-01T01:41:05;101786.99;;;22.59;100.00
31331;BME280;34067;39.548;-76.088;2022-08-01T01:43:35;101788.58;;;23.38;100.00
31331;BME280;34067;39.548;-76.088;2022-08-01T01:46:05;101783.21;;;23.68;100.00
31331;BME280;34067;39.548;-76.088;2022-08-01T01:48:35;101786.49;;;24.03;100.00
31331;BME280;34067;39.548;-76.088;2022-08-01T01:51:04;101782.21;;;24.31;100.00
31331;BME280;34067;39.548;-76.088;2022-08-01T01:53:34;101780.47;;;24.07;100.00
31331;BME280;34067;39.548;-76.088;2022-08-01T01:56:04;101777.12;;;23.47;100.00
31331;BME280;34067;39.548;-76.088;2022-08-01T01:58:34;101776.38;;;23.10;100.00
31331;BME280;34067;39.548;-76.088;2022-08-01T02:01:02;101771.98;;;23.04;100.00
31331;BME280;34067;39.548;-76.088;2022-08-01T02:03:30;101772.63;;;22.95;100.00
31331;BME280;34067;39.548;-76.088;2022-08-01T02:05:59;101768.90;;;23.75;100.00
31331;BME280;34067;39.548;-76.088;2022-08-01T02:08:29;101768.87;;;23.96;100.00
31331;BME280;34067;39.548;-76.088;2022-08-01T02:10:58;101756.62;;;23.61;100.00
31331;BME280;34067;39.548;-76.088;2022-08-01T02:13:27;101745.34;;;24.38;100.00
31331;BME280;34067;39.548;-76.088;2022-08-01T02:15:56;101740.25;;;23.55;100.00
31331;BME280;34067;39.548;-76.088;2022-08-01T02:18:24;101738.74;;;23.86;100.00
31331;BME280;34067;39.548;-76.088;2022-08-01T02:20:53;101742.80;;;23.63;100.00
31331;BME280;34067;39.548;-76.088;2022-08-01T02:23:23;101744.05;;;23.04;100.00
31331;BME280;34067;39.548;-76.088;2022-08-01T02:25:53;101745.01;;;23.11;100.00
31331;BME280;34067;39.548;-76.088;2022-08-01T02:28:28;101736.50;;;23.69;100.00
31331;BME280;34067;39.548;-76.088;2022-08-01T02:31:00;101736.30;;;23.78;100.00
31331;BME280;34067;39.548;-76.088;2022-08-01T02:33:36;101732.58;;;23.52;100.00
31331;BME280;34067;39.548;-76.088;2022-08-01T02:36:07;101725.35;;;23.60;100.00
31331;BME280;34067;39.548;-76.088;2022-08-01T02:38:37;101715.54;;;23.24;100.00
31331;BME280;34067;39.548;-76.088;2022-08-01T02:41:09;101708.53;;;23.46;100.00
31331;BME280;34067;39.548;-76.088;2022-08-01T02:43:40;101703.04;;;23.39;100.00
31331;BME280;34067;39.548;-76.088;2022-08-01T02:46:16;101699.23;;;23.85;100.00
31331;BME280;34067;39.548;-76.088;2022-08-01T02:48:46;101700.85;;;23.70;100.00
31331;BME280;34067;39.548;-76.088;2022-08-01T02:51:16;101700.58;;;23.11;100.00
31331;BME280;34067;39.548;-76.088;2022-08-01T02:53:46;101704.43;;;23.35;100.00
31331;BME280;34067;39.548;-76.088;2022-08-01T02:56:15;101701.79;;;23.43;100.00
31331;BME280;34067;39.548;-76.088;2022-08-01T02:58:45;101698.83;;;23.90;100.00
31331;BME280;34067;39.548;-76.088;2022-08-01T03:01:15;101704.84;;;24.37;100.00
31331;BME280;34067;39.548;-76.088;2022-08-01T03:03:45;101695.01;;;24.08;100.00
31331;BME280;34067;39.548;-76.088;2022-08-01T03:06:15;101686.31;;;23.24;100.00
31331;BME280;34067;39.548;-76.088;2022-08-01T03:08:44;101686.23;;;22.45;100.00
31331;BME280;34067;39.548;-76.088;2022-08-01T03:11:12;101686.71;;;21.96;100.00
31331;BME280;34067;39.548;-76.088;2022-08-01T03:13:42;101677.83;;;23.88;100.00
31331;BME280;34067;39.548;-76.088;2022-08-01T03:16:12;101678.13;;;23.54;100.00
31331;BME280;34067;39.548;-76.088;2022-08-01T03:18:41;101675.64;;;23.93;100.00
31331;BME280;34067;39.548;-76.088;2022-08-01T03:21:12;101677.01;;;24.20;100.00
31331;BME280;34067;39.548;-76.088;2022-08-01T03:23:43;101673.56;;;23.94;98.91
31331;BME280;34067;39.548;-76.088;2022-08-01T03:26:13;101672.01;;;24.25;95.63
31331;BME280;34067;39.548;-76.088;2022-08-01T03:28:42;101674.93;;;24.00;96.71
31331;BME280;34067;39.548;-76.088;2022-08-01T03:31:14;101672.93;;;24.46;100.00
31331;BME280;34067;39.548;-76.088;2022-08-01T03:33:42;101669.88;;;24.03;98.61
31331;BME280;34067;39.548;-76.088;2022-08-01T03:36:11;101664.01;;;24.28;100.00
31331;BME280;34067;39.548;-76.088;2022-08-01T03:38:40;101655.19;;;24.16;100.00
31331;BME280;34067;39.548;-76.088;2022-08-01T03:41:13;101653.50;;;24.15;100.00
31331;BME280;34067;39.548;-76.088;2022-08-01T03:43:48;101651.96;;;24.11;100.00
31331;BME280;34067;39.548;-76.088;2022-08-01T03:46:25;101655.89;;;24.53;100.00
31331;BME280;34067;39.548;-76.088;2022-08-01T03:48:56;101649.47;;;24.05;100.00
31331;BME280;34067;39.548;-76.088;2022-08-01T03:51:26;101646.34;;;23.75;100.00
31331;BME280;34067;39.548;-76.088;2022-08-01T03:53:55;101643.54;;;23.94;100.00
31331;BME280;34067;39.548;-76.088;2022-08-01T03:56:24;101642.09;;;24.43;100.00
31331;BME280;34067;39.548;-76.088;2022-08-01T03:58:53;101644.63;;;24.09;99.13
31331;BME280;34067;39.548;-76.088;2022-08-01T04:01:21;101657.97;;;23.87;100.00
31331;BME280;34067;39.548;-76.088;2022-08-01T04:03:49;101658.61;;;24.85;100.00
31331;BME280;34067;39.548;-76.088;2022-08-01T04:06:17;101659.74;;;24.17;98.42
31331;BME280;34067;39.548;-76.088;2022-08-01T04:08:45;101658.36;;;25.18;95.49
31331;BME280;34067;39.548;-76.088;2022-08-01T04:11:14;101657.31;;;24.65;96.25
31331;BME280;34067;39.548;-76.088;2022-08-01T04:13:41;101645.52;;;24.42;89.33
31331;BME280;34067;39.548;-76.088;2022-08-01T04:16:09;101635.89;;;24.92;87.49
31331;BME280;34067;39.548;-76.088;2022-08-01T04:18:37;101628.53;;;24.51;88.94
31331;BME280;34067;39.548;-76.088;2022-08-01T04:21:05;101627.88;;;25.18;87.22
31331;BME280;34067;39.548;-76.088;2022-08-01T04:23:34;101621.99;;;24.89;85.65
31331;BME280;34067;39.548;-76.088;2022-08-01T04:26:03;101629.05;;;25.03;86.27
31331;BME280;34067;39.548;-76.088;2022-08-01T04:28:34;101627.79;;;25.17;83.39
31331;BME280;34067;39.548;-76.088;2022-08-01T04:31:08;101626.26;;;24.14;85.56
31331;BME280;34067;39.548;-76.088;2022-08-01T04:33:36;101622.15;;;25.39;83.22
31331;BME280;34067;39.548;-76.088;2022-08-01T04:36:06;101615.88;;;24.42;85.20
31331;BME280;34067;39.548;-76.088;2022-08-01T04:38:38;101619.21;;;24.67;93.11
31331;BME280;34067;39.548;-76.088;2022-08-01T04:41:07;101618.39;;;24.43;99.40
31331;BME280;34067;39.548;-76.088;2022-08-01T04:43:37;101616.95;;;23.88;100.00
31331;BME280;34067;39.548;-76.088;2022-08-01T04:46:06;101620.63;;;22.78;100.00
31331;BME280;34067;39.548;-76.088;2022-08-01T04:48:37;101619.08;;;23.00;100.00
31331;BME280;34067;39.548;-76.088;2022-08-01T04:51:12;101613.56;;;23.29;100.00
31331;BME280;34067;39.548;-76.088;2022-08-01T04:53:41;101616.80;;;23.16;100.00
31331;BME280;34067;39.548;-76.088;2022-08-01T04:56:09;101616.92;;;23.81;100.00
31331;BME280;34067;39.548;-76.088;2022-08-01T04:58:37;101613.50;;;23.49;100.00
31331;BME280;34067;39.548;-76.088;2022-08-01T05:03:10;101615.18;;;24.23;100.00
31331;BME280;34067;39.548;-76.088;2022-08-01T05:05:38;101616.47;;;23.91;100.00
31331;BME280;34067;39.548;-76.088;2022-08-01T05:08:06;101610.32;;;23.62;100.00
31331;BME280;34067;39.548;-76.088;2022-08-01T05:10:34;101605.85;;;23.50;100.00
31331;BME280;34067;39.548;-76.088;2022-08-01T05:13:01;101598.71;;;23.03;100.00
31331;BME280;34067;39.548;-76.088;2022-08-01T05:15:29;101589.35;;;22.86;100.00
31331;BME280;34067;39.548;-76.088;2022-08-01T05:17:57;101589.41;;;23.21;100.00
31331;BME280;34067;39.548;-76.088;2022-08-01T05:20:25;101588.97;;;22.93;100.00
31331;BME280;34067;39.548;-76.088;2022-08-01T05:22:53;101592.54;;;23.21;100.00
31331;BME280;34067;39.548;-76.088;2022-08-01T05:25:21;101577.50;;;22.92;100.00
31331;BME280;34067;39.548;-76.088;2022-08-01T05:27:48;101581.00;;;23.07;100.00
31331;BME280;34067;39.548;-76.088;2022-08-01T05:30:17;101574.18;;;23.47;100.00
31331;BME280;34067;39.548;-76.088;2022-08-01T05:32:45;101565.12;;;23.16;100.00
31331;BME280;34067;39.548;-76.088;2022-08-01T05:35:13;101564.33;;;22.68;100.00
31331;BME280;34067;39.548;-76.088;2022-08-01T05:37:40;101565.53;;;23.40;100.00
31331;BME280;34067;39.548;-76.088;2022-08-01T05:40:09;101558.90;;;22.51;100.00
31331;BME280;34067;39.548;-76.088;2022-08-01T05:42:37;101562.30;;;23.30;100.00
31331;BME280;34067;39.548;-76.088;2022-08-01T05:45:06;101566.72;;;23.08;100.00
31331;BME280;34067;39.548;-76.088;2022-08-01T05:47:33;101567.86;;;21.63;100.00
31331;BME280;34067;39.548;-76.088;2022-08-01T05:50:02;101561.91;;;21.49;100.00
31331;BME280;34067;39.548;-76.088;2022-08-01T05:52:30;101556.44;;;21.64;100.00
31331;BME280;34067;39.548;-76.088;2022-08-01T05:54:58;101554.11;;;22.51;100.00
31331;BME280;34067;39.548;-76.088;2022-08-01T05:57:26;101552.97;;;22.52;100.00
31331;BME280;34067;39.548;-76.088;2022-08-01T05:59:54;101555.14;;;21.85;100.00
31331;BME280;34067;39.548;-76.088;2022-08-01T06:02:21;101553.86;;;23.21;100.00
31331;BME280;34067;39.548;-76.088;2022-08-01T06:04:49;101555.47;;;23.34;100.00
31331;BME280;34067;39.548;-76.088;2022-08-01T06:07:17;101557.30;;;23.44;100.00
31331;BME280;34067;39.548;-76.088;2022-08-01T06:09:45;101547.80;;;22.79;100.00
31331;BME280;34067;39.548;-76.088;2022-08-01T06:12:13;101542.44;;;22.33;100.00
31331;BME280;34067;39.548;-76.088;2022-08-01T06:14:41;101539.41;;;22.94;100.00
31331;BME280;34067;39.548;-76.088;2022-08-01T06:17:09;101533.77;;;22.66;100.00
31331;BME280;34067;39.548;-76.088;2022-08-01T06:19:37;101528.75;;;23.48;100.00
31331;BME280;34067;39.548;-76.088;2022-08-01T06:22:05;101528.41;;;23.53;100.00
31331;BME280;34067;39.548;-76.088;2022-08-01T06:24:33;101531.22;;;22.64;100.00
31331;BME280;34067;39.548;-76.088;2022-08-01T06:27:01;101534.81;;;23.24;100.00
31331;BME280;34067;39.548;-76.088;2022-08-01T06:29:30;101537.05;;;23.32;100.00
31331;BME280;34067;39.548;-76.088;2022-08-01T06:31:59;101537.74;;;22.06;100.00
31331;BME280;34067;39.548;-76.088;2022-08-01T06:34:27;101538.72;;;21.88;100.00
31331;BME280;34067;39.548;-76.088;2022-08-01T06:36:54;101532.38;;;21.52;100.00
31331;BME280;34067;39.548;-76.088;2022-08-01T06:39:23;101532.72;;;22.21;100.00
31331;BME280;34067;39.548;-76.088;2022-08-01T06:41:51;101533.83;;;21.61;100.00
31331;BME280;34067;39.548;-76.088;2022-08-01T06:44:19;101533.49;;;21.86;100.00
31331;BME280;34067;39.548;-76.088;2022-08-01T06:46:47;101523.43;;;22.01;100.00
31331;BME280;34067;39.548;-76.088;2022-08-01T06:49:15;101523.63;;;20.98;100.00
31331;BME280;34067;39.548;-76.088;2022-08-01T06:51:42;101524.07;;;21.07;100.00
31331;BME280;34067;39.548;-76.088;2022-08-01T06:54:10;101527.51;;;20.43;100.00
31331;BME280;34067;39.548;-76.088;2022-08-01T06:56:38;101531.74;;;20.36;100.00
31331;BME280;34067;39.548;-76.088;2022-08-01T06:59:06;101522.68;;;21.16;100.00
31331;BME280;34067;39.548;-76.088;2022-08-01T07:01:34;101520.97;;;21.14;100.00
31331;BME280;34067;39.548;-76.088;2022-08-01T07:04:02;101520.67;;;21.59;100.00
31331;BME280;34067;39.548;-76.088;2022-08-01T07:06:29;101516.04;;;21.96;100.00
31331;BME280;34067;39.548;-76.088;2022-08-01T07:08:58;101518.60;;;21.85;100.00
31331;BME280;34067;39.548;-76.088;2022-08-01T07:11:25;101515.69;;;21.27;100.00
31331;BME280;34067;39.548;-76.088;2022-08-01T07:13:53;101518.87;;;20.68;100.00
31331;BME280;34067;39.548;-76.088;2022-08-01T07:16:21;101514.76;;;21.02;100.00
31331;BME280;34067;39.548;-76.088;2022-08-01T07:18:50;101516.32;;;21.07;100.00
31331;BME280;34067;39.548;-76.088;2022-08-01T07:21:17;101512.85;;;20.64;100.00
31331;BME280;34067;39.548;-76.088;2022-08-01T07:23:46;101502.84;;;21.15;100.00
31331;BME280;34067;39.548;-76.088;2022-08-01T07:26:13;101496.10;;;21.07;100.00
31331;BME280;34067;39.548;-76.088;2022-08-01T07:28:41;101493.09;;;21.58;100.00
31331;BME280;34067;39.548;-76.088;2022-08-01T07:31:10;101490.97;;;20.59;100.00
31331;BME280;34067;39.548;-76.088;2022-08-01T07:33:38;101486.72;;;21.47;100.00
31331;BME280;34067;39.548;-76.088;2022-08-01T07:36:05;101485.26;;;20.58;100.00
31331;BME280;34067;39.548;-76.088;2022-08-01T07:38:33;101477.68;;;20.64;100.00
31331;BME280;34067;39.548;-76.088;2022-08-01T07:41:01;101473.89;;;21.19;100.00
31331;BME280;34067;39.548;-76.088;2022-08-01T07:43:29;101471.23;;;21.11;100.00
31331;BME280;34067;39.548;-76.088;2022-08-01T07:45:57;101469.53;;;21.24;100.00
31331;BME280;34067;39.548;-76.088;2022-08-01T07:48:25;101465.83;;;21.00;100.00
31331;BME280;34067;39.548;-76.088;2022-08-01T07:50:53;101459.42;;;22.21;100.00
31331;BME280;34067;39.548;-76.088;2022-08-01T07:53:20;101459.36;;;21.28;100.00
31331;BME280;34067;39.548;-76.088;2022-08-01T07:55:48;101458.02;;;21.53;100.00
31331;BME280;34067;39.548;-76.088;2022-08-01T07:58:17;101463.12;;;21.72;100.00
31331;BME280;34067;39.548;-76.088;2022-08-01T08:00:46;101458.47;;;21.75;100.00
31331;BME280;34067;39.548;-76.088;2022-08-01T08:03:14;101457.16;;;21.06;100.00
31331;BME280;34067;39.548;-76.088;2022-08-01T08:05:42;101455.03;;;21.26;100.00
31331;BME280;34067;39.548;-76.088;2022-08-01T08:08:10;101455.20;;;21.55;100.00
31331;BME280;34067;39.548;-76.088;2022-08-01T08:10:37;101454.04;;;21.97;100.00
31331;BME280;34067;39.548;-76.088;2022-08-01T08:13:05;101448.56;;;22.40;100.00
31331;BME280;34067;39.548;-76.088;2022-08-01T08:15:33;101450.67;;;21.99;100.00
31331;BME280;34067;39.548;-76.088;2022-08-01T08:18:03;101449.45;;;21.08;100.00
31331;BME280;34067;39.548;-76.088;2022-08-01T08:20:31;101446.53;;;21.24;100.00
31331;BME280;34067;39.548;-76.088;2022-08-01T08:22:58;101446.61;;;20.89;100.00
31331;BME280;34067;39.548;-76.088;2022-08-01T08:25:26;101441.84;;;22.10;100.00
31331;BME280;34067;39.548;-76.088;2022-08-01T08:27:55;101440.25;;;21.40;100.00
31331;BME280;34067;39.548;-76.088;2022-08-01T08:30:23;101439.62;;;21.03;100.00
31331;BME280;34067;39.548;-76.088;2022-08-01T08:32:51;101439.48;;;21.46;100.00
31331;BME280;34067;39.548;-76.088;2022-08-01T08:35:19;101441.10;;;21.98;100.00
31331;BME280;34067;39.548;-76.088;2022-08-01T08:37:47;101441.99;;;21.33;100.00
31331;BME280;34067;39.548;-76.088;2022-08-01T08:40:16;101434.87;;;22.16;100.00
31331;BME280;34067;39.548;-76.088;2022-08-01T08:42:44;101438.67;;;21.40;100.00
31331;BME280;34067;39.548;-76.088;2022-08-01T08:45:13;101436.96;;;21.90;100.00
31331;BME280;34067;39.548;-76.088;2022-08-01T08:47:41;101440.02;;;22.65;100.00
31331;BME280;34067;39.548;-76.088;2022-08-01T08:50:11;101432.13;;;21.74;100.00
31331;BME280;34067;39.548;-76.088;2022-08-01T08:52:40;101432.02;;;21.90;100.00
31331;BME280;34067;39.548;-76.088;2022-08-01T08:55:10;101429.21;;;21.67;100.00
31331;BME280;34067;39.548;-76.088;2022-08-01T08:57:40;101428.85;;;22.08;100.00
31331;BME280;34067;39.548;-76.088;2022-08-01T09:00:13;101430.39;;;21.76;100.00
31331;BME280;34067;39.548;-76.088;2022-08-01T09:02:42;101432.50;;;22.36;100.00
31331;BME280;34067;39.548;-76.088;2022-08-01T09:05:10;101430.14;;;21.56;100.00
31331;BME280;34067;39.548;-76.088;2022-08-01T09:07:39;101435.22;;;21.29;100.00
31331;BME280;34067;39.548;-76.088;2022-08-01T09:10:08;101428.66;;;21.61;100.00
31331;BME280;34067;39.548;-76.088;2022-08-01T09:12:37;101429.49;;;21.97;100.00
31331;BME280;34067;39.548;-76.088;2022-08-01T09:15:06;101426.34;;;22.60;100.00
31331;BME280;34067;39.548;-76.088;2022-08-01T09:17:41;101427.66;;;21.54;100.00
31331;BME280;34067;39.548;-76.088;2022-08-01T09:20:23;101425.40;;;21.92;100.00
31331;BME280;34067;39.548;-76.088;2022-08-01T09:22:51;101426.94;;;22.33;100.00
31331;BME280;34067;39.548;-76.088;2022-08-01T09:25:19;101425.21;;;22.20;100.00
31331;BME280;34067;39.548;-76.088;2022-08-01T09:27:47;101430.51;;;21.59;100.00
31331;BME280;34067;39.548;-76.088;2022-08-01T09:30:17;101423.55;;;22.14;100.00
31331;BME280;34067;39.548;-76.088;2022-08-01T09:32:54;101419.47;;;21.98;100.00
31331;BME280;34067;39.548;-76.088;2022-08-01T09:35:25;101421.15;;;22.03;100.00
31331;BME280;34067;39.548;-76.088;2022-08-01T09:38:13;101424.15;;;21.66;100.00
31331;BME280;34067;39.548;-76.088;2022-08-01T09:40:46;101425.99;;;22.04;100.00
31331;BME280;34067;39.548;-76.088;2022-08-01T09:43:14;101436.16;;;22.24;100.00
31331;BME280;34067;39.548;-76.088;2022-08-01T09:45:42;101440.33;;;22.97;100.00
31331;BME280;34067;39.548;-76.088;2022-08-01T09:48:10;101439.75;;;22.73;100.00
31331;BME280;34067;39.548;-76.088;2022-08-01T09:50:40;101438.25;;;23.30;100.00
31331;BME280;34067;39.548;-76.088;2022-08-01T09:53:09;101438.55;;;23.27;100.00
31331;BME280;34067;39.548;-76.088;2022-08-01T09:55:37;101439.26;;;22.95;100.00
31331;BME280;34067;39.548;-76.088;2022-08-01T09:58:06;101435.49;;;22.83;100.00
31331;BME280;34067;39.548;-76.088;2022-08-01T10:00:34;101436.38;;;22.42;100.00
31331;BME280;34067;39.548;-76.088;2022-08-01T10:03:19;101436.24;;;21.62;100.00
31331;BME280;34067;39.548;-76.088;2022-08-01T10:05:47;101439.27;;;21.96;100.00
31331;BME280;34067;39.548;-76.088;2022-08-01T10:08:16;101445.20;;;22.48;100.00
31331;BME280;34067;39.548;-76.088;2022-08-01T10:11:06;101450.05;;;21.28;100.00
31331;BME280;34067;39.548;-76.088;2022-08-01T10:13:34;101449.83;;;21.78;100.00
31331;BME280;34067;39.548;-76.088;2022-08-01T10:16:03;101446.70;;;22.22;100.00
31331;BME280;34067;39.548;-76.088;2022-08-01T10:18:34;101443.92;;;22.35;100.00
31331;BME280;34067;39.548;-76.088;2022-08-01T10:21:03;101443.69;;;21.78;100.00
31331;BME280;34067;39.548;-76.088;2022-08-01T10:23:35;101446.15;;;22.08;100.00
31331;BME280;34067;39.548;-76.088;2022-08-01T10:26:05;101451.13;;;22.29;100.00
31331;BME280;34067;39.548;-76.088;2022-08-01T10:28:35;101448.54;;;22.27;100.00
31331;BME280;34067;39.548;-76.088;2022-08-01T10:31:04;101448.61;;;21.74;100.00
31331;BME280;34067;39.548;-76.088;2022-08-01T10:33:34;101446.73;;;21.88;100.00
31331;BME280;34067;39.548;-76.088;2022-08-01T10:36:02;101447.35;;;22.13;100.00
31331;BME280;34067;39.548;-76.088;2022-08-01T10:38:31;101450.56;;;22.37;100.00
31331;BME280;34067;39.548;-76.088;2022-08-01T10:41:00;101446.92;;;21.18;100.00
31331;BME280;34067;39.548;-76.088;2022-08-01T10:43:30;101447.43;;;22.50;100.00
31331;BME280;34067;39.548;-76.088;2022-08-01T10:45:58;101448.10;;;23.08;100.00
31331;BME280;34067;39.548;-76.088;2022-08-01T10:48:32;101447.19;;;22.15;100.00
31331;BME280;34067;39.548;-76.088;2022-08-01T10:51:05;101446.76;;;22.32;100.00
31331;BME280;34067;39.548;-76.088;2022-08-01T10:53:33;101452.66;;;23.11;100.00
31331;BME280;34067;39.548;-76.088;2022-08-01T10:56:03;101452.58;;;21.53;100.00
31331;BME280;34067;39.548;-76.088;2022-08-01T10:58:33;101450.37;;;21.72;100.00
31331;BME280;34067;39.548;-76.088;2022-08-01T11:01:20;101449.44;;;22.09;100.00
31331;BME280;34067;39.548;-76.088;2022-08-01T11:04:07;101455.29;;;22.16;100.00
31331;BME280;34067;39.548;-76.088;2022-08-01T11:06:43;101456.98;;;22.13;100.00
31331;BME280;34067;39.548;-76.088;2022-08-01T11:09:27;101460.79;;;21.92;100.00
31331;BME280;34067;39.548;-76.088;2022-08-01T11:12:01;101456.52;;;21.64;100.00
31331;BME280;34067;39.548;-76.088;2022-08-01T11:14:29;101460.04;;;21.45;100.00
31331;BME280;34067;39.548;-76.088;2022-08-01T11:17:31;101457.44;;;20.88;100.00
31331;BME280;34067;39.548;-76.088;2022-08-01T11:20:08;101459.64;;;20.82;100.00
31331;BME280;34067;39.548;-76.088;2022-08-01T11:23:21;101468.17;;;22.11;100.00
31331;BME280;34067;39.548;-76.088;2022-08-01T11:26:22;101469.35;;;21.55;100.00
31331;BME280;34067;39.548;-76.088;2022-08-01T11:29:22;101470.38;;;22.01;100.00
31331;BME280;34067;39.548;-76.088;2022-08-01T11:31:50;101476.93;;;21.68;100.00
31331;BME280;34067;39.548;-76.088;2022-08-01T11:34:18;101478.62;;;22.06;100.00
31331;BME280;34067;39.548;-76.088;2022-08-01T11:36:47;101476.96;;;21.79;100.00
31331;BME280;34067;39.548;-76.088;2022-08-01T11:39:17;101475.35;;;22.01;100.00
31331;BME280;34067;39.548;-76.088;2022-08-01T11:41:48;101481.06;;;22.92;100.00
31331;BME280;34067;39.548;-76.088;2022-08-01T11:44:21;101481.78;;;22.61;100.00
31331;BME280;34067;39.548;-76.088;2022-08-01T11:46:52;101483.30;;;22.24;100.00
31331;BME280;34067;39.548;-76.088;2022-08-01T11:49:24;101487.15;;;23.03;100.00
31331;BME280;34067;39.548;-76.088;2022-08-01T11:51:59;101486.91;;;23.65;100.00
31331;BME280;34067;39.548;-76.088;2022-08-01T11:54:29;101487.00;;;22.94;100.00
31331;BME280;34067;39.548;-76.088;2022-08-01T11:57:00;101488.31;;;23.76;98.92
31331;BME280;34067;39.548;-76.088;2022-08-01T11:59:28;101484.62;;;23.58;98.28
31331;BME280;34067;39.548;-76.088;2022-08-01T12:01:56;101484.52;;;23.27;100.00
31331;BME280;34067;39.548;-76.088;2022-08-01T12:04:24;101485.02;;;23.81;100.00
31331;BME280;34067;39.548;-76.088;2022-08-01T12:06:52;101483.19;;;24.09;97.38
31331;BME280;34067;39.548;-76.088;2022-08-01T12:09:21;101488.39;;;23.53;99.29
31331;BME280;34067;39.548;-76.088;2022-08-01T12:11:49;101485.06;;;23.84;97.33
31331;BME280;34067;39.548;-76.088;2022-08-01T12:14:19;101489.41;;;22.87;99.41
31331;BME280;34067;39.548;-76.088;2022-08-01T12:16:51;101494.31;;;21.98;100.00
31331;BME280;34067;39.548;-76.088;2022-08-01T12:19:22;101492.99;;;23.25;98.69
31331;BME280;34067;39.548;-76.088;2022-08-01T12:22:23;101487.55;;;24.23;94.56
31331;BME280;34067;39.548;-76.088;2022-08-01T12:24:51;101482.92;;;24.85;90.43
31331;BME280;34067;39.548;-76.088;2022-08-01T12:27:29;101487.01;;;24.69;92.66
31331;BME280;34067;39.548;-76.088;2022-08-01T12:29:58;101488.54;;;24.03;94.79
31331;BME280;34067;39.548;-76.088;2022-08-01T12:32:29;101485.15;;;23.49;100.00
31331;BME280;34067;39.548;-76.088;2022-08-01T12:35:01;101484.32;;;23.49;96.56
31331;BME280;34067;39.548;-76.088;2022-08-01T12:37:29;101483.68;;;23.57;99.07